createdAt,value
2023-03-14T00:00:00.134Z,976.93
2023-03-14T00:05:00.138Z,976.85
2023-03-14T00:10:00.102Z,976.77
2023-03-14T00:15:00.108Z,976.83
2023-03-14T00:20:00.125Z,976.87
2023-03-14T00:25:00.125Z,976.86
2023-03-14T00:30:00.130Z,976.77
2023-03-14T00:35:00.104Z,976.76
2023-03-14T00:40:00.118Z,976.82
2023-03-14T00:45:00.143Z,977.03
2023-03-14T00:50:00.108Z,976.99
2023-03-14T00:55:00.117Z,976.94
2023-03-14T01:00:00.138Z,976.9
2023-03-14T01:05:00.142Z,976.85
2023-03-14T01:10:00.104Z,977.06
2023-03-14T01:15:00.148Z,977.29
2023-03-14T01:20:00.162Z,977.35
2023-03-14T01:25:00.137Z,977.33
2023-03-14T01:30:00.149Z,977.44
2023-03-14T01:35:00.136Z,977.33
2023-03-14T01:40:00.151Z,977.41
2023-03-14T01:45:00.168Z,977.25
2023-03-14T01:50:00.162Z,977.29
2023-03-14T01:55:00.127Z,977.36
2023-03-14T02:00:00.127Z,977.23
2023-03-14T02:05:00.158Z,977.06
2023-03-14T02:10:00.189Z,976.93
2023-03-14T02:15:00.134Z,976.95
2023-03-14T02:20:00.120Z,976.84
2023-03-14T02:25:00.133Z,976.8
2023-03-14T02:30:00.192Z,976.82
2023-03-14T02:35:00.107Z,976.77
2023-03-14T02:40:00.105Z,976.51
2023-03-14T02:45:00.133Z,976.42
2023-03-14T02:50:00.141Z,976.38
2023-03-14T02:55:00.150Z,976.27
2023-03-14T03:00:00.128Z,976.41
2023-03-14T03:05:00.123Z,976.33
2023-03-14T03:10:00.101Z,976.27
2023-03-14T03:15:00.109Z,976.19
2023-03-14T03:20:00.135Z,976.47
2023-03-14T03:25:00.165Z,976.52
2023-03-14T03:30:00.125Z,976.37
2023-03-14T03:35:00.133Z,976.37
2023-03-14T03:40:00.120Z,976.25
2023-03-14T03:45:00.192Z,976.16
2023-03-14T03:50:00.106Z,976.11
2023-03-14T03:55:00.122Z,976
2023-03-14T04:00:00.136Z,975.91
2023-03-14T04:05:00.122Z,975.88
2023-03-14T04:10:00.102Z,975.88
2023-03-14T04:15:00.114Z,975.88
2023-03-14T04:20:00.136Z,975.91
2023-03-14T04:25:00.189Z,975.95
2023-03-14T04:30:00.134Z,975.36
2023-03-14T04:35:00.128Z,975.38
2023-03-14T04:40:00.106Z,975.28
2023-03-14T04:45:00.138Z,975.33
2023-03-14T04:50:00.135Z,975.28
2023-03-14T04:55:00.116Z,975.25
2023-03-14T05:00:00.145Z,975.19
2023-03-14T05:05:00.156Z,975.18
2023-03-14T05:10:00.134Z,975.15
2023-03-14T05:15:00.115Z,975.04
2023-03-14T05:20:00.107Z,975.02
2023-03-14T05:25:00.178Z,974.89
2023-03-14T05:30:00.177Z,974.95
2023-03-14T05:35:00.147Z,974.95
2023-03-14T05:40:00.131Z,974.81
2023-03-14T05:45:00.154Z,974.73
2023-03-14T05:50:00.138Z,974.79
2023-03-14T05:55:00.129Z,974.66
2023-03-14T06:00:00.134Z,974.75
2023-03-14T06:05:00.128Z,974.92
2023-03-14T06:10:00.130Z,974.77
2023-03-14T06:15:00.093Z,974.73
2023-03-14T06:20:00.112Z,974.78
2023-03-14T06:25:00.132Z,974.68
2023-03-14T06:30:00.144Z,974.71
2023-03-14T06:35:00.122Z,974.72
2023-03-14T06:40:00.120Z,974.76
2023-03-14T06:45:00.111Z,974.83
2023-03-14T06:50:00.135Z,974.99
2023-03-14T06:55:00.107Z,974.96
2023-03-14T07:00:00.137Z,975.12
2023-03-14T07:05:00.114Z,975.12
2023-03-14T07:10:00.108Z,975.18
2023-03-14T07:15:08.629Z,975
2023-03-14T07:20:00.136Z,974.88
2023-03-14T07:25:00.123Z,974.82
2023-03-14T07:30:00.153Z,974.74
2023-03-14T07:35:00.110Z,974.88
2023-03-14T07:40:00.141Z,974.88
2023-03-14T07:45:00.156Z,974.98
2023-03-14T07:50:00.110Z,975.12
2023-03-14T07:55:00.129Z,975.1
2023-03-14T08:00:00.177Z,975.18
2023-03-14T08:05:00.128Z,975.2
2023-03-14T08:10:00.156Z,975.16
2023-03-14T08:15:00.159Z,975.14
2023-03-14T08:20:00.122Z,974.98
2023-03-14T08:25:00.158Z,974.89
2023-03-14T08:30:00.141Z,974.95
2023-03-14T08:35:00.129Z,974.97
2023-03-14T08:40:00.086Z,974.8
2023-03-14T08:45:00.148Z,974.82
2023-03-14T08:50:00.175Z,974.83
2023-03-14T08:55:00.125Z,974.8
2023-03-14T09:00:00.418Z,974.68
2023-03-14T09:05:00.174Z,974.8
2023-03-14T09:10:00.134Z,974.79
2023-03-14T09:15:00.132Z,974.83
2023-03-14T09:20:00.734Z,974.76
2023-03-14T09:25:00.200Z,974.71
2023-03-14T09:30:00.179Z,974.69
2023-03-14T09:35:00.134Z,974.87
2023-03-14T09:40:00.124Z,974.86
2023-03-14T09:45:00.179Z,974.86
2023-03-14T09:50:00.140Z,974.9
2023-03-14T09:55:00.097Z,974.89
2023-03-14T10:00:00.146Z,975.02
2023-03-14T10:05:00.131Z,974.97
2023-03-14T10:10:00.125Z,974.95
2023-03-14T10:15:00.142Z,974.97
2023-03-14T10:20:00.141Z,975.01
2023-03-14T10:25:00.186Z,974.94
2023-03-14T10:30:00.188Z,974.96
2023-03-14T10:35:00.124Z,975.18
2023-03-14T10:40:00.096Z,975.18
2023-03-14T10:45:00.164Z,975.24
2023-03-14T10:50:00.118Z,975.29
2023-03-14T10:55:00.137Z,975.19
2023-03-14T11:00:00.123Z,975.18
2023-03-14T11:05:00.252Z,975.13
2023-03-14T11:10:00.125Z,975.09
2023-03-14T11:15:00.134Z,975.21
2023-03-14T11:20:00.106Z,975.22
2023-03-14T11:25:00.126Z,975.22
2023-03-14T11:30:00.130Z,975.19
2023-03-14T11:35:00.134Z,975.12
2023-03-14T11:40:00.118Z,975.18
2023-03-14T11:45:00.562Z,975.1
2023-03-14T11:50:00.233Z,975.01
2023-03-14T11:55:00.141Z,975.14
2023-03-14T12:00:00.168Z,975.2
2023-03-14T12:05:00.216Z,975.12
2023-03-14T12:10:00.148Z,975.01
2023-03-14T12:15:00.095Z,974.95
2023-03-14T12:20:00.141Z,974.84
2023-03-14T12:25:00.143Z,974.9
2023-03-14T12:30:02.351Z,974.9
2023-03-14T12:35:00.129Z,974.95
2023-03-14T12:40:00.347Z,975.01
2023-03-14T12:45:00.143Z,974.99
2023-03-14T12:50:00.127Z,974.88
2023-03-14T12:55:00.109Z,974.74
2023-03-14T13:00:00.210Z,974.72
2023-03-14T13:05:00.152Z,974.63
2023-03-14T13:10:00.134Z,974.55
2023-03-14T13:15:00.112Z,974.38
2023-03-14T13:20:00.147Z,974.31
2023-03-14T13:25:00.150Z,974.37
2023-03-14T13:30:00.259Z,974.34
2023-03-14T13:35:00.109Z,974.38
2023-03-14T13:40:00.205Z,974.43
2023-03-14T13:45:00.156Z,974.42
2023-03-14T13:50:00.189Z,974.3
2023-03-14T13:55:00.141Z,974.44
2023-03-14T14:00:00.153Z,974.24
2023-03-14T14:05:00.308Z,974.23
2023-03-14T14:10:00.133Z,974.19
2023-03-14T14:15:00.131Z,974.2
2023-03-14T14:20:00.124Z,974.16
2023-03-14T14:25:00.142Z,974.14
2023-03-14T14:30:00.152Z,974.28
2023-03-14T14:35:00.124Z,974.28
2023-03-14T14:40:00.192Z,974.4
2023-03-14T14:45:00.154Z,974.3
2023-03-14T14:50:00.195Z,974.25
2023-03-14T14:55:00.157Z,974.31
2023-03-14T15:00:00.196Z,974.37
2023-03-14T15:05:00.385Z,974.43
2023-03-14T15:10:00.118Z,974.67
2023-03-14T15:15:00.126Z,975.05
2023-03-14T15:20:00.144Z,975.25
2023-03-14T15:25:00.126Z,976.19
2023-03-14T15:30:00.163Z,976.53
2023-03-14T15:35:00.109Z,976.96
2023-03-14T15:40:00.133Z,977.36
2023-03-14T15:45:00.174Z,977.56
2023-03-14T15:50:00.187Z,977.98
2023-03-14T15:55:00.135Z,978.28
2023-03-14T16:00:00.161Z,978.39
2023-03-14T16:05:00.200Z,978.75
2023-03-14T16:10:00.159Z,979.12
2023-03-14T16:15:00.122Z,979.45
2023-03-14T16:20:00.150Z,979.72
2023-03-14T16:25:00.181Z,980.02
2023-03-14T16:30:00.280Z,980.33
2023-03-14T16:35:00.095Z,980.51
2023-03-14T16:40:11.936Z,980.91
2023-03-14T16:45:00.260Z,981.21
2023-03-14T16:50:00.108Z,981.57
2023-03-14T16:55:00.162Z,981.58
2023-03-14T17:00:00.164Z,981.9
2023-03-14T17:05:00.118Z,982.23
2023-03-14T17:10:00.105Z,982.45
2023-03-14T17:15:00.119Z,982.84
2023-03-14T17:20:00.131Z,983.14
2023-03-14T17:25:00.135Z,983.28
2023-03-14T17:30:00.128Z,983.6
2023-03-14T17:35:00.126Z,983.84
2023-03-14T17:40:00.120Z,984.03
2023-03-14T17:45:00.125Z,984.15
2023-03-14T17:50:00.126Z,984.4
2023-03-14T17:55:00.115Z,984.59
2023-03-14T18:00:00.188Z,984.83
2023-03-14T18:05:00.212Z,984.92
2023-03-14T18:10:00.110Z,985.08
2023-03-14T18:15:00.123Z,985.26
2023-03-14T18:20:00.121Z,985.36
2023-03-14T18:25:00.233Z,985.47
2023-03-14T18:30:00.142Z,985.65
2023-03-14T18:35:00.123Z,985.67
2023-03-14T18:40:00.136Z,985.78
2023-03-14T18:45:00.210Z,985.76
2023-03-14T18:50:00.133Z,985.94
2023-03-14T18:55:00.145Z,986.01
2023-03-14T19:00:00.171Z,986.12
2023-03-14T19:05:00.131Z,986.39
2023-03-14T19:10:00.107Z,986.6
2023-03-14T19:15:00.106Z,986.71
2023-03-14T19:20:00.123Z,986.89
2023-03-14T19:25:00.179Z,986.97
2023-03-14T19:30:00.155Z,987.14
2023-03-14T19:35:00.090Z,987.3
2023-03-14T19:40:00.084Z,987.5
2023-03-14T19:45:00.149Z,987.66
2023-03-14T19:50:00.130Z,987.64
2023-03-14T19:55:00.121Z,987.79
2023-03-14T20:00:00.158Z,987.86
2023-03-14T20:05:00.133Z,988.08
2023-03-14T20:10:00.119Z,988.26
2023-03-14T20:15:00.123Z,988.38
2023-03-14T20:20:00.111Z,988.42
2023-03-14T20:25:00.326Z,988.48
2023-03-14T20:30:00.136Z,988.62
2023-03-14T20:35:00.110Z,988.66
2023-03-14T20:40:00.127Z,988.79
2023-03-14T20:45:00.165Z,988.83
2023-03-14T20:50:00.120Z,988.87
2023-03-14T20:55:00.126Z,988.8
2023-03-14T21:00:00.110Z,989.04
2023-03-14T21:05:00.283Z,989.1
2023-03-14T21:10:00.170Z,989.15
2023-03-14T21:15:00.106Z,989.26
2023-03-14T21:20:00.147Z,989.27
2023-03-14T21:25:00.122Z,989.46
2023-03-14T21:30:00.156Z,990.04
2023-03-14T21:35:00.111Z,990.12
2023-03-14T21:40:00.121Z,990.19
2023-03-14T21:45:00.137Z,990.26
2023-03-14T21:50:00.119Z,990.28
2023-03-14T21:55:00.108Z,990.3
2023-03-14T22:00:00.157Z,990.28
2023-03-14T22:05:00.136Z,990.43
2023-03-14T22:10:00.114Z,990.53
2023-03-14T22:15:00.117Z,990.67
2023-03-14T22:20:00.095Z,990.76
2023-03-14T22:25:00.125Z,990.79
2023-03-14T22:30:00.152Z,990.95
2023-03-14T22:35:00.090Z,990.98
2023-03-14T22:40:00.099Z,991.18
2023-03-14T22:45:00.136Z,991.27
2023-03-14T22:50:00.117Z,991.37
2023-03-14T22:55:00.104Z,991.48
2023-03-14T23:00:00.155Z,991.48
2023-03-14T23:05:00.112Z,991.52
2023-03-14T23:10:00.107Z,991.57
2023-03-14T23:15:00.142Z,991.68
2023-03-14T23:20:00.116Z,991.68
2023-03-14T23:25:00.112Z,991.74
2023-03-14T23:30:00.155Z,991.84
2023-03-14T23:35:00.096Z,991.88
2023-03-14T23:40:00.112Z,992.03
2023-03-14T23:45:00.204Z,991.98
2023-03-14T23:50:00.110Z,991.99
2023-03-14T23:55:00.109Z,992.04
